Time;durP1;ratioP1;P1;durP2;ratioP2;P2;SDS_P1;SDS_P2;PMS_P1;PMS_P2;Temp;Humidity;BMP_temperature;BMP_pressure;BME280_temperature;BME280_humidity;BME280_pressure;Samples;Min_cycle;Max_cycle;Signal;HPM_P1;HPM_P2
2022/10/07 00:00:12;;;;;;;5.38;1.73;;;16.30;93.00;;;;;;10056463;28;20029;-62
2022/10/07 00:05:03;;;;;;;5.70;1.40;;;16.20;93.10;;;;;;10055440;28;20048;-61
2022/10/07 00:09:53;;;;;;;2.13;1.08;;;16.10;93.10;;;;;;10057194;28;20047;-61
2022/10/07 00:14:44;;;;;;;4.30;1.42;;;16.20;93.10;;;;;;10058128;28;20495;-62
2022/10/07 00:19:35;;;;;;;5.85;1.58;;;16.30;93.10;;;;;;10056367;28;20026;-61
2022/10/07 00:24:25;;;;;;;5.68;1.75;;;16.20;93.10;;;;;;10047992;28;20077;-61
2022/10/07 00:29:16;;;;;;;2.95;1.00;;;16.20;93.30;;;;;;10056832;28;20029;-61
2022/10/07 00:34:07;;;;;;;2.85;1.83;;;16.20;93.30;;;;;;10056685;28;20033;-61
2022/10/07 00:39:00;;;;;;;3.72;1.30;;;16.30;93.40;;;;;;10056579;28;20032;-61
2022/10/07 00:43:52;;;;;;;5.35;1.85;;;16.40;93.60;;;;;;10055279;28;20057;-62
2022/10/07 00:48:44;;;;;;;3.90;1.10;;;16.40;93.50;;;;;;10052454;28;20171;-61
2022/10/07 00:53:38;;;;;;;3.97;1.45;;;16.30;93.60;;;;;;10051546;28;20051;-62
2022/10/07 00:58:30;;;;;;;1.90;1.10;;;16.30;93.80;;;;;;10050708;28;20102;-62
2022/10/07 01:03:21;;;;;;;2.70;0.90;;;16.20;93.90;;;;;;10051776;28;20088;-62
2022/10/07 01:08:14;;;;;;;3.78;1.27;;;16.30;94.00;;;;;;10050861;28;20033;-61
2022/10/07 01:13:18;;;;;;;6.07;1.85;;;16.40;93.80;;;;;;10051224;28;20052;-62
2022/10/07 01:18:17;;;;;;;2.38;1.33;;;16.40;93.90;;;;;;10052669;28;20030;-61
2022/10/07 01:23:43;;;;;;;3.90;1.00;;;16.30;93.90;;;;;;10053078;28;20044;-62
2022/10/07 01:28:38;;;;;;;3.13;0.98;;;16.20;94.00;;;;;;10050962;28;20033;-61
2022/10/07 01:33:31;;;;;;;2.58;0.82;;;16.20;94.00;;;;;;10055739;28;20041;-61
2022/10/07 01:38:27;;;;;;;4.47;1.40;;;16.20;94.00;;;;;;10055279;28;20021;-61
2022/10/07 01:43:20;;;;;;;1.85;0.90;;;16.30;93.90;;;;;;10060047;28;20057;-61
2022/10/07 01:48:14;;;;;;;2.10;0.88;;;16.30;94.00;;;;;;10062180;28;20029;-61
2022/10/07 01:53:34;;;;;;;2.03;1.15;;;16.20;94.10;;;;;;10062596;28;20190;-61
2022/10/07 01:59:05;;;;;;;5.07;1.48;;;16.20;94.20;;;;;;10054113;28;20427;-61
2022/10/07 02:04:14;;;;;;;5.72;1.50;;;16.10;94.30;;;;;;10061345;28;20033;-61
2022/10/07 02:09:16;;;;;;;5.47;1.52;;;16.10;94.20;;;;;;10060986;28;20021;-61
2022/10/07 02:14:13;;;;;;;2.20;0.95;;;16.00;94.30;;;;;;10059340;28;20033;-62
2022/10/07 02:19:09;;;;;;;1.15;0.82;;;16.00;94.50;;;;;;10057283;28;20051;-61
2022/10/07 02:24:01;;;;;;;5.07;0.98;;;16.00;94.50;;;;;;10057444;28;20147;-61
2022/10/07 02:28:54;;;;;;;6.55;1.10;;;16.00;94.60;;;;;;10055966;28;20076;-61
2022/10/07 02:33:46;;;;;;;1.83;1.58;;;16.10;94.60;;;;;;10055804;28;20053;-62
2022/10/07 02:38:38;;;;;;;4.15;1.38;;;15.90;94.60;;;;;;10056597;28;20033;-62
2022/10/07 02:43:37;;;;;;;1.80;1.05;;;15.90;94.80;;;;;;10055503;28;20037;-62
2022/10/07 02:48:36;;;;;;;3.05;1.83;;;15.70;94.90;;;;;;10053932;28;20096;-62
2022/10/07 02:53:31;;;;;;;4.15;0.98;;;15.70;95.00;;;;;;10060267;28;20026;-61
2022/10/07 02:58:25;;;;;;;2.58;1.00;;;15.70;95.10;;;;;;10050672;28;20025;-62
2022/10/07 03:03:16;;;;;;;2.80;1.50;;;15.80;95.10;;;;;;10060035;28;20045;-61
2022/10/07 03:08:09;;;;;;;3.72;0.98;;;15.70;95.30;;;;;;10059858;28;20026;-61
2022/10/07 03:13:00;;;;;;;3.47;1.40;;;15.70;95.40;;;;;;10047419;28;20032;-61
2022/10/07 03:17:51;;;;;;;3.00;1.20;;;15.70;95.40;;;;;;10057263;28;20118;-62
2022/10/07 03:22:42;;;;;;;4.05;1.45;;;15.80;95.50;;;;;;10059700;28;20063;-61
2022/10/07 03:27:33;;;;;;;3.63;1.50;;;15.60;95.80;;;;;;10058542;28;20032;-61
2022/10/07 03:32:26;;;;;;;5.47;1.50;;;15.50;95.90;;;;;;10059121;28;20024;-61
2022/10/07 03:37:16;;;;;;;3.53;1.08;;;15.40;96.10;;;;;;10059153;28;20458;-61
2022/10/07 03:42:07;;;;;;;5.28;1.30;;;15.40;96.20;;;;;;10059109;28;20072;-61
2022/10/07 03:46:58;;;;;;;3.25;0.98;;;15.60;96.30;;;;;;10052951;28;20052;-61
2022/10/07 03:51:48;;;;;;;2.80;1.17;;;15.60;96.30;;;;;;10053399;28;20036;-61
2022/10/07 03:56:39;;;;;;;4.03;1.65;;;15.60;96.40;;;;;;10053969;28;20411;-61
2022/10/07 04:01:30;;;;;;;7.03;1.77;;;15.70;96.50;;;;;;10053605;28;20026;-61
2022/10/07 04:06:20;;;;;;;2.00;1.00;;;15.60;96.60;;;;;;10053012;28;20068;-62
2022/10/07 04:11:11;;;;;;;2.75;1.05;;;15.50;96.80;;;;;;10052927;28;20025;-61
2022/10/07 04:16:09;;;;;;;5.38;1.77;;;15.40;96.90;;;;;;10053254;28;20025;-61
2022/10/07 04:20:59;;;;;;;3.33;1.45;;;15.40;97.10;;;;;;10055627;28;20028;-60
2022/10/07 04:25:50;;;;;;;4.70;1.85;;;15.40;97.20;;;;;;10056131;28;20112;-62
2022/10/07 04:30:42;;;;;;;4.50;2.15;;;15.30;97.40;;;;;;10058313;28;20262;-62
2022/10/07 04:35:37;;;;;;;4.13;1.30;;;15.30;97.50;;;;;;10056776;28;20033;-62
2022/10/07 04:40:28;;;;;;;3.83;1.50;;;15.30;97.60;;;;;;10044773;28;20128;-62
2022/10/07 04:45:19;;;;;;;2.92;1.98;;;15.30;97.70;;;;;;10056067;28;20113;-62
2022/10/07 04:50:10;;;;;;;4.15;1.60;;;15.40;97.60;;;;;;10053227;28;20032;-62
2022/10/07 04:55:01;;;;;;;5.38;1.45;;;15.40;97.60;;;;;;10056544;28;20065;-61
2022/10/07 04:59:51;;;;;;;5.35;1.50;;;15.40;97.70;;;;;;10055974;28;20026;-62
2022/10/07 05:04:43;;;;;;;3.88;1.63;;;15.20;97.90;;;;;;10028280;28;20468;-61
2022/10/07 05:09:34;;;;;;;3.10;0.88;;;15.30;97.90;;;;;;10053965;28;20018;-61
2022/10/07 05:14:25;;;;;;;4.18;1.50;;;15.40;97.80;;;;;;10055459;28;20037;-61
2022/10/07 05:19:16;;;;;;;5.25;1.92;;;15.20;98.00;;;;;;10059495;28;20499;-62
2022/10/07 05:24:06;;;;;;;6.68;1.98;;;15.30;98.10;;;;;;10059575;28;20506;-61
2022/10/07 05:28:57;;;;;;;3.67;2.00;;;15.30;98.10;;;;;;10059128;28;20112;-62
2022/10/07 05:33:50;;;;;;;3.75;1.90;;;15.30;98.20;;;;;;10059173;28;20037;-62
2022/10/07 05:38:41;;;;;;;5.60;2.17;;;15.40;98.20;;;;;;10059547;28;20399;-61
2022/10/07 05:43:34;;;;;;;13.38;6.25;;;15.30;98.30;;;;;;10059082;28;20053;-62
2022/10/07 05:48:24;;;;;;;7.07;2.45;;;15.20;98.50;;;;;;10058472;28;20021;-62
2022/10/07 05:53:15;;;;;;;6.43;2.75;;;15.30;98.40;;;;;;10062967;28;20414;-61
2022/10/07 05:58:06;;;;;;;8.82;2.80;;;15.50;98.30;;;;;;10062233;28;20533;-62
2022/10/07 06:02:57;;;;;;;4.03;2.97;;;15.60;98.20;;;;;;10070534;28;20033;-61
2022/10/07 06:07:47;;;;;;;9.18;2.75;;;15.70;98.20;;;;;;10062247;28;20032;-61
2022/10/07 06:17:47;;;;;;;4.50;1.83;;;15.80;98.40;;;;;;10061217;28;20771;-62
2022/10/07 06:22:38;;;;;;;3.58;1.85;;;15.60;98.40;;;;;;10068216;28;20387;-62
2022/10/07 06:27:29;;;;;;;3.05;1.33;;;15.70;98.50;;;;;;10053670;28;20022;-61
2022/10/07 06:32:20;;;;;;;4.18;1.40;;;15.70;98.60;;;;;;10078209;28;20024;-61
2022/10/07 06:37:10;;;;;;;3.55;2.25;;;15.80;98.60;;;;;;10086493;28;20041;-60
2022/10/07 06:42:01;;;;;;;3.55;1.48;;;15.80;98.50;;;;;;10091498;28;20157;-59
2022/10/07 06:46:51;;;;;;;7.75;2.25;;;15.80;98.60;;;;;;10078591;28;20430;-58
2022/10/07 06:51:42;;;;;;;10.80;2.53;;;16.00;98.70;;;;;;10073138;28;20537;-60
2022/10/07 06:56:32;;;;;;;9.13;2.10;;;16.00;98.60;;;;;;10072884;28;20078;-59
2022/10/07 07:01:23;;;;;;;5.95;3.50;;;16.10;98.70;;;;;;10074164;28;20458;-60
2022/10/07 07:06:14;;;;;;;7.30;3.30;;;16.10;98.70;;;;;;10068592;28;20049;-61
2022/10/07 07:16:20;;;;;;;5.07;1.85;;;16.00;99.00;;;;;;10071693;28;20196;-60
2022/10/07 07:21:10;;;;;;;9.48;2.38;;;16.00;98.90;;;;;;10074125;28;20029;-62
2022/10/07 07:26:01;;;;;;;6.35;2.08;;;16.10;98.90;;;;;;10078400;28;20260;-61
2022/10/07 07:30:51;;;;;;;5.22;2.22;;;16.30;98.80;;;;;;10081647;28;20024;-59
2022/10/07 07:35:42;;;;;;;7.28;2.15;;;16.30;98.80;;;;;;10092012;28;20509;-60
2022/10/07 07:40:38;;;;;;;5.50;3.08;;;16.30;98.90;;;;;;10086508;28;20114;-60
2022/10/07 07:45:30;;;;;;;4.05;2.00;;;16.20;98.90;;;;;;10085455;28;20361;-61
2022/10/07 07:50:25;;;;;;;3.97;1.88;;;16.30;99.00;;;;;;10082790;28;20037;-61
2022/10/07 07:55:17;;;;;;;4.90;1.70;;;16.40;98.90;;;;;;10099547;28;20021;-63
2022/10/07 08:00:10;;;;;;;3.47;1.83;;;16.50;98.80;;;;;;10084976;28;20178;-63
2022/10/07 08:05:01;;;;;;;6.38;2.17;;;16.50;98.60;;;;;;10087581;28;20044;-60
2022/10/07 08:09:51;;;;;;;3.80;1.95;;;16.70;98.70;;;;;;10084156;28;20025;-59
2022/10/07 08:14:42;;;;;;;6.40;2.10;;;16.70;98.70;;;;;;10081126;28;20021;-61
2022/10/07 08:19:32;;;;;;;4.75;2.50;;;17.00;98.60;;;;;;10072410;28;20324;-61
2022/10/07 08:24:24;;;;;;;7.05;2.55;;;17.20;98.40;;;;;;10069451;28;20098;-63
2022/10/07 08:29:15;;;;;;;5.55;2.63;;;17.20;98.40;;;;;;10064657;28;20448;-60
2022/10/07 08:34:06;;;;;;;4.10;2.20;;;17.20;98.50;;;;;;10074633;28;20044;-59
2022/10/07 08:38:57;;;;;;;7.13;4.15;;;17.30;98.30;;;;;;10068418;28;20024;-61
2022/10/07 08:43:49;;;;;;;9.60;3.00;;;17.40;98.30;;;;;;10056941;28;20124;-61
2022/10/07 08:48:43;;;;;;;7.68;2.13;;;17.50;98.30;;;;;;10057311;28;20108;-60
2022/10/07 08:53:36;;;;;;;10.30;3.30;;;17.80;98.10;;;;;;10055892;28;20085;-59
2022/10/07 08:59:01;;;;;;;5.53;2.83;;;17.90;98.00;;;;;;10062366;28;20060;-62
2022/10/07 09:04:16;;;;;;;8.18;3.15;;;17.80;98.00;;;;;;10050501;28;20133;-60
2022/10/07 09:09:16;;;;;;;5.63;2.63;;;17.70;98.10;;;;;;10053488;28;20080;-60
2022/10/07 09:14:33;;;;;;;12.57;6.20;;;17.90;97.90;;;;;;10051524;28;20026;-60
2022/10/07 09:19:41;;;;;;;9.52;3.53;;;18.10;97.60;;;;;;10060595;28;20111;-59
2022/10/07 09:24:34;;;;;;;8.80;2.70;;;18.20;97.60;;;;;;10079241;28;20029;-60
2022/10/07 09:29:28;;;;;;;8.85;2.55;;;18.20;97.80;;;;;;10065362;28;20057;-60
2022/10/07 09:34:27;;;;;;;6.55;2.22;;;18.20;97.80;;;;;;10058528;28;20073;-60
2022/10/07 09:39:22;;;;;;;3.65;2.25;;;18.20;97.60;;;;;;10066136;28;20510;-60
2022/10/07 09:44:16;;;;;;;5.45;3.13;;;18.30;97.60;;;;;;10066855;28;20145;-61
2022/10/07 09:49:26;;;;;;;10.10;2.08;;;18.40;97.50;;;;;;10052408;28;20033;-61
2022/10/07 09:54:24;;;;;;;4.03;2.00;;;18.60;97.40;;;;;;10052838;28;20534;-61
2022/10/07 09:59:22;;;;;;;8.13;2.80;;;18.60;97.50;;;;;;10068024;28;20037;-61
2022/10/07 10:04:18;;;;;;;4.88;2.10;;;18.70;97.50;;;;;;10070724;28;20025;-60
2022/10/07 10:09:10;;;;;;;4.28;1.65;;;18.70;97.50;;;;;;10058706;28;20056;-60
2022/10/07 10:14:34;;;;;;;6.85;3.08;;;18.90;97.40;;;;;;10055755;28;20467;-61
2022/10/07 10:19:26;;;;;;;6.45;2.92;;;19.00;97.50;;;;;;10054011;28;20381;-61
2022/10/07 10:26:24;;;;;;;10.85;3.55;;;19.00;97.40;;;;;;10058634;28;20041;-61
2022/10/07 10:29:47;;;;;;;6.03;3.05;;;19.10;97.40;;;;;;10058482;28;20072;-59
2022/10/07 10:35:10;;;;;;;6.90;2.67;;;19.10;97.40;;;;;;10072210;28;20037;-62
2022/10/07 10:40:18;;;;;;;9.57;2.70;;;19.20;97.40;;;;;;10058922;28;20040;-62
2022/10/07 10:45:33;;;;;;;4.97;2.03;;;19.10;97.40;;;;;;10059842;28;20099;-62
2022/10/07 10:50:40;;;;;;;4.27;2.00;;;19.10;97.50;;;;;;10061599;28;20033;-62
2022/10/07 10:56:26;;;;;;;6.28;3.17;;;19.20;97.40;;;;;;10061737;28;20025;-61
2022/10/07 11:01:32;;;;;;;;;;;19.50;97.30;;;;;;10045825;28;20104;-60
2022/10/07 11:06:25;;;;;;;6.30;2.50;;;19.60;97.30;;;;;;10058108;28;19913;-61
2022/10/07 11:11:18;;;;;;;4.95;2.08;;;19.40;97.40;;;;;;10036318;28;20029;-61
2022/10/07 11:16:21;;;;;;;9.38;3.20;;;19.60;97.30;;;;;;10056586;28;20507;-60
2022/10/07 11:21:19;;;;;;;9.13;2.75;;;19.70;97.20;;;;;;10055793;28;20108;-59
2022/10/07 11:26:36;;;;;;;3.38;2.15;;;19.90;97.10;;;;;;10057690;28;20032;-61
2022/10/07 11:31:34;;;;;;;4.68;2.00;;;20.20;97.00;;;;;;10071312;28;20179;-62
2022/10/07 11:36:50;;;;;;;4.07;2.78;;;20.30;96.90;;;;;;10074167;28;20507;-63
2022/10/07 11:41:53;;;;;;;6.68;2.65;;;20.40;96.90;;;;;;10070535;28;20371;-63
2022/10/07 11:46:46;;;;;;;3.35;2.13;;;20.30;96.90;;;;;;10059846;28;20384;-61
2022/10/07 11:51:49;;;;;;;8.93;2.72;;;20.30;96.90;;;;;;10067676;28;20055;-64
2022/10/07 11:56:49;;;;;;;3.88;2.08;;;20.50;96.80;;;;;;10057374;28;20231;-62
2022/10/07 12:01:46;;;;;;;5.80;2.40;;;20.70;96.60;;;;;;10072795;28;20257;-64
2022/10/07 12:06:37;;;;;;;5.25;2.80;;;20.80;96.50;;;;;;10075277;28;20040;-63
2022/10/07 12:11:38;;;;;;;4.20;2.53;;;20.90;96.50;;;;;;10084371;28;20025;-63
2022/10/07 12:16:29;;;;;;;7.00;2.60;;;21.30;96.30;;;;;;10084157;28;20460;-62
2022/10/07 12:21:19;;;;;;;4.95;2.05;;;21.30;96.30;;;;;;10079812;28;20032;-62
2022/10/07 12:26:31;;;;;;;7.20;3.63;;;21.80;96.10;;;;;;10082548;28;20151;-63
2022/10/07 12:31:21;;;;;;;7.43;3.25;;;22.10;95.80;;;;;;10075350;28;20361;-59
2022/10/07 12:36:22;;;;;;;6.18;1.98;;;22.20;95.90;;;;;;10078143;28;20025;-61
2022/10/07 12:41:25;;;;;;;8.45;2.47;;;22.40;95.70;;;;;;10081051;28;20045;-61
2022/10/07 12:46:19;;;;;;;5.87;2.53;;;22.90;95.60;;;;;;10071256;28;20033;-62
2022/10/07 12:51:22;;;;;;;6.00;2.10;;;23.50;95.50;;;;;;10073885;28;20511;-58
2022/10/07 12:56:21;;;;;;;6.53;2.47;;;23.70;95.40;;;;;;10074204;28;20084;-62
2022/10/07 13:01:27;;;;;;;5.60;2.22;;;23.90;95.30;;;;;;10069251;28;20095;-61
2022/10/07 13:06:30;;;;;;;7.72;2.38;;;23.90;95.30;;;;;;10068783;28;20461;-61
2022/10/07 13:11:36;;;;;;;7.35;2.17;;;23.20;95.10;;;;;;10065778;28;20413;-61
2022/10/07 13:16:41;;;;;;;5.35;2.60;;;23.00;95.10;;;;;;10066284;28;20026;-65
2022/10/07 13:22:10;;;;;;;6.88;2.45;;;23.30;95.20;;;;;;10064100;28;20536;-63
2022/10/07 13:27:00;;;;;;;8.93;2.92;;;23.90;94.60;;;;;;10086836;28;20041;-61
2022/10/07 13:32:13;;;;;;;6.60;2.80;;;24.30;94.70;;;;;;10081907;28;20021;-61
2022/10/07 13:37:24;;;;;;;7.57;2.38;;;24.60;94.30;;;;;;10085344;28;20033;-61
2022/10/07 13:42:15;;;;;;;6.32;2.70;;;25.20;93.70;;;;;;10079673;28;20037;-63
2022/10/07 13:47:08;;;;;;;6.97;2.28;;;25.20;93.90;;;;;;10089019;28;20151;-61
2022/10/07 13:52:04;;;;;;;5.10;2.58;;;24.30;93.50;;;;;;10087434;28;20021;-63
2022/10/07 13:56:55;;;;;;;7.20;4.30;;;24.10;93.50;;;;;;10093292;28;21091;-61
2022/10/07 14:01:54;;;;;;;9.30;2.72;;;24.60;92.90;;;;;;10092869;28;20029;-63
2022/10/07 14:07:10;;;;;;;4.38;2.22;;;24.60;92.50;;;;;;10092708;28;20037;-62
2022/10/07 14:12:19;;;;;;;5.68;2.33;;;25.10;92.30;;;;;;10093675;28;20519;-63
2022/10/07 14:17:32;;;;;;;3.67;2.00;;;24.20;92.40;;;;;;10077107;28;20037;-64
2022/10/07 14:22:34;;;;;;;6.45;2.20;;;23.70;92.50;;;;;;10072072;28;20025;-65
2022/10/07 14:27:51;;;;;;;7.63;2.65;;;23.90;92.30;;;;;;10073743;28;20022;-64
2022/10/07 14:37:51;;;;;;;12.35;4.68;;;24.30;91.70;;;;;;10075230;28;20522;-63
2022/10/07 14:42:42;;;;;;;6.65;2.60;;;24.30;91.70;;;;;;10073468;28;20107;-62
2022/10/07 14:47:32;;;;;;;4.53;2.35;;;23.70;92.00;;;;;;10070999;28;20028;-65
2022/10/07 14:52:28;;;;;;;4.20;2.47;;;25.80;91.10;;;;;;10070974;28;20033;-61
2022/10/07 14:57:19;;;;;;;8.27;3.58;;;29.00;88.50;;;;;;10060857;28;20471;-61
2022/10/07 15:02:11;;;;;;;7.72;3.28;;;29.70;86.90;;;;;;10063205;28;20101;-59
2022/10/07 15:07:02;;;;;;;4.75;2.67;;;29.00;85.40;;;;;;10079925;28;20032;-62
2022/10/07 15:11:52;;;;;;;5.45;2.70;;;26.60;88.50;;;;;;10081047;28;20017;-64
2022/10/07 15:16:43;;;;;;;9.88;3.42;;;25.60;89.40;;;;;;10083843;28;20026;-63
2022/10/07 15:21:33;;;;;;;10.43;3.08;;;25.60;89.10;;;;;;10084829;28;20242;-63
2022/10/07 15:26:24;;;;;;;4.82;2.70;;;27.80;86.80;;;;;;10088200;28;20043;-62
2022/10/07 15:31:16;;;;;;;12.93;5.50;;;29.30;82.80;;;;;;10082248;28;20418;-62
2022/10/07 15:36:07;;;;;;;8.40;4.47;;;28.60;82.60;;;;;;10088205;28;20059;-63
2022/10/07 15:41:00;;;;;;;10.18;3.28;;;27.50;83.30;;;;;;10085228;28;20078;-60
2022/10/07 15:45:51;;;;;;;8.73;3.23;;;26.80;84.80;;;;;;10068395;28;20120;-61
2022/10/07 15:50:48;;;;;;;9.30;3.35;;;24.50;87.60;;;;;;10070812;28;20029;-60
2022/10/07 15:55:47;;;;;;;9.45;4.30;;;24.50;87.30;;;;;;10059260;28;20407;-60
2022/10/07 16:00:38;;;;;;;6.70;4.05;;;23.80;88.60;;;;;;10050731;28;20060;-60
2022/10/07 16:05:30;;;;;;;9.30;4.13;;;23.10;89.60;;;;;;10053365;28;20026;-59
2022/10/07 16:10:20;;;;;;;6.47;3.88;;;22.40;90.40;;;;;;10053597;28;20032;-59
2022/10/07 16:15:11;;;;;;;10.15;3.92;;;22.10;90.70;;;;;;10052713;28;20030;-61
2022/10/07 16:20:03;;;;;;;10.93;4.18;;;21.70;91.20;;;;;;10052468;28;20022;-62
2022/10/07 16:24:54;;;;;;;5.38;2.70;;;21.40;91.50;;;;;;10054140;28;20056;-61
2022/10/07 16:34:54;;;;;;;10.93;3.30;;;21.10;92.20;;;;;;10057314;28;20403;-59
2022/10/07 16:39:44;;;;;;;7.40;3.05;;;20.90;92.50;;;;;;10057219;28;20036;-62
2022/10/07 16:44:35;;;;;;;7.18;3.00;;;20.80;92.90;;;;;;10052962;28;20136;-62
2022/10/07 16:49:28;;;;;;;5.10;2.97;;;20.70;93.40;;;;;;10054345;28;20113;-61
2022/10/07 16:54:19;;;;;;;6.53;2.80;;;20.60;93.40;;;;;;10055313;28;20509;-60
2022/10/07 16:59:11;;;;;;;12.23;5.43;;;20.40;93.80;;;;;;10055696;28;20017;-65
2022/10/07 17:04:02;;;;;;;7.13;4.35;;;20.40;93.90;;;;;;10054800;28;20038;-61
2022/10/07 17:08:55;;;;;;;5.35;3.15;;;20.30;94.10;;;;;;10062076;28;20205;-62
2022/10/07 17:13:46;;;;;;;9.80;3.95;;;20.30;94.30;;;;;;10060142;28;20698;-63
2022/10/07 17:18:37;;;;;;;9.20;3.50;;;20.20;94.50;;;;;;10060035;28;20064;-61
2022/10/07 17:23:31;;;;;;;10.32;3.33;;;20.10;94.70;;;;;;10061085;28;20038;-61
2022/10/07 17:28:22;;;;;;;9.20;3.90;;;20.00;95.00;;;;;;10060074;28;20026;-61
2022/10/07 17:33:16;;;;;;;7.95;5.00;;;20.00;95.00;;;;;;10060707;28;20030;-64
2022/10/07 17:38:07;;;;;;;12.68;4.32;;;20.10;95.20;;;;;;10061585;28;20026;-62
2022/10/07 17:43:05;;;;;;;11.95;4.47;;;20.00;95.40;;;;;;10059659;28;20061;-60
2022/10/07 17:48:03;;;;;;;9.93;4.70;;;20.00;95.60;;;;;;10058608;28;20457;-60
2022/10/07 17:52:53;;;;;;;12.23;4.30;;;20.00;95.60;;;;;;10062249;28;20041;-63
2022/10/07 17:57:45;;;;;;;11.65;4.75;;;19.90;95.70;;;;;;10063564;28;20099;-61
2022/10/07 18:02:35;;;;;;;11.82;4.07;;;19.80;95.90;;;;;;10063066;28;20538;-61
2022/10/07 18:07:26;;;;;;;8.60;3.67;;;19.70;96.10;;;;;;10060666;28;20029;-60
2022/10/07 18:17:26;;;;;;;9.95;4.22;;;19.60;96.40;;;;;;10057928;28;20051;-62
2022/10/07 18:22:18;;;;;;;7.75;4.30;;;19.50;96.50;;;;;;10058003;28;20488;-62
2022/10/07 18:27:08;;;;;;;7.72;4.03;;;19.40;96.70;;;;;;10061158;28;20051;-62
2022/10/07 18:31:59;;;;;;;8.23;3.40;;;19.30;96.80;;;;;;10063504;28;20063;-62
2022/10/07 18:36:50;;;;;;;7.75;3.88;;;19.30;96.90;;;;;;10061555;28;20099;-62
2022/10/07 18:41:41;;;;;;;9.27;4.78;;;19.30;97.10;;;;;;10060529;28;20041;-61
2022/10/07 18:46:32;;;;;;;12.60;4.45;;;19.20;97.30;;;;;;10065533;28;20111;-61
2022/10/07 18:51:23;;;;;;;10.10;5.13;;;19.20;97.40;;;;;;10059030;28;20392;-62
2022/10/07 18:56:19;;;;;;;9.38;5.05;;;19.20;97.90;;;;;;10056977;28;20112;-62
2022/10/07 19:01:12;;;;;;;8.23;4.28;;;19.20;97.60;;;;;;10056315;28;20037;-61
2022/10/07 19:06:08;;;;;;;10.57;4.78;;;19.30;97.80;;;;;;10055514;28;20042;-60
2022/10/07 19:11:07;;;;;;;9.73;4.95;;;19.30;97.80;;;;;;10056726;28;20027;-62
2022/10/07 19:16:02;;;;;;;15.02;5.15;;;19.40;97.80;;;;;;10057282;28;20033;-60
2022/10/07 19:20:57;;;;;;;8.90;4.40;;;19.40;97.80;;;;;;10056102;28;20018;-61
2022/10/07 19:25:52;;;;;;;12.38;4.75;;;19.40;97.90;;;;;;10059242;28;20040;-62
2022/10/07 19:30:44;;;;;;;14.07;4.82;;;19.30;97.90;;;;;;10060532;28;20048;-63
2022/10/07 19:35:34;;;;;;;9.48;4.13;;;19.40;97.90;;;;;;10059530;28;20033;-64
2022/10/07 19:40:25;;;;;;;8.95;4.07;;;19.20;98.10;;;;;;10060471;28;20026;-64
2022/10/07 19:45:15;;;;;;;11.00;5.47;;;19.20;98.20;;;;;;10059503;28;20119;-64
2022/10/07 19:50:06;;;;;;;9.68;4.15;;;19.20;98.20;;;;;;10065771;28;20029;-65
2022/10/07 19:54:57;;;;;;;9.07;4.60;;;19.20;98.20;;;;;;10059303;28;20033;-63
2022/10/07 19:59:47;;;;;;;9.02;4.13;;;19.20;98.30;;;;;;10059665;28;20014;-62
2022/10/07 20:04:40;;;;;;;16.13;4.18;;;19.20;98.50;;;;;;10058568;28;20045;-61
2022/10/07 20:09:30;;;;;;;11.40;4.82;;;19.10;98.30;;;;;;10058938;28;20032;-64
2022/10/07 20:14:24;;;;;;;14.52;6.88;;;19.10;98.30;;;;;;10057462;28;20045;-62
2022/10/07 20:19:17;;;;;;;14.10;6.75;;;19.10;98.30;;;;;;10054457;28;20029;-61
2022/10/07 20:24:11;;;;;;;14.50;6.47;;;19.10;98.30;;;;;;10053721;28;20137;-61
2022/10/07 20:29:04;;;;;;;10.13;5.30;;;19.20;98.30;;;;;;10053414;28;20119;-64
2022/10/07 20:33:56;;;;;;;8.43;5.65;;;19.20;98.40;;;;;;10053571;28;20057;-61
2022/10/07 20:44:01;;;;;;;12.15;6.40;;;18.90;98.50;;;;;;10053029;28;20092;-63
2022/10/07 20:48:53;;;;;;;7.43;4.80;;;18.90;98.60;;;;;;10053720;28;20095;-63
2022/10/07 20:53:47;;;;;;;10.27;5.65;;;19.00;98.70;;;;;;10054090;28;20025;-61
2022/10/07 20:58:37;;;;;;;8.73;4.43;;;18.90;98.80;;;;;;10057025;28;20026;-62
2022/10/07 21:03:29;;;;;;;13.57;5.00;;;18.90;98.80;;;;;;10089025;28;20492;-61
2022/10/07 21:08:19;;;;;;;9.23;4.35;;;18.90;98.90;;;;;;10056197;28;20514;-63
2022/10/07 21:13:10;;;;;;;10.30;4.50;;;18.90;98.90;;;;;;10056885;28;20037;-61
2022/10/07 21:18:00;;;;;;;9.65;4.65;;;18.80;99.00;;;;;;10055975;28;20029;-62
2022/10/07 21:22:53;;;;;;;9.10;5.25;;;18.80;99.10;;;;;;10054739;28;20495;-61
2022/10/07 21:27:43;;;;;;;11.98;6.97;;;18.80;99.10;;;;;;10049722;28;20523;-60
2022/10/07 21:32:34;;;;;;;10.43;5.93;;;18.60;99.20;;;;;;10057195;28;20196;-63
2022/10/07 21:37:25;;;;;;;11.75;5.40;;;18.60;99.30;;;;;;10055851;28;20056;-63
2022/10/07 21:42:15;;;;;;;16.30;7.30;;;18.50;99.40;;;;;;10056234;28;20048;-61
2022/10/07 21:47:06;;;;;;;8.65;6.22;;;18.50;99.40;;;;;;10052303;28;20232;-61
2022/10/07 21:51:57;;;;;;;14.60;6.25;;;18.50;99.60;;;;;;10054140;28;20017;-63
2022/10/07 21:56:48;;;;;;;12.57;6.38;;;18.50;99.70;;;;;;10052412;28;20055;-63
2022/10/07 22:01:48;;;;;;;13.55;6.82;;;18.50;99.80;;;;;;10060212;28;20055;-65
2022/10/07 22:11:54;;;;;;;11.80;6.13;;;18.30;99.90;;;;;;10058898;28;20032;-60
2022/10/07 22:16:47;;;;;;;10.77;5.65;;;18.20;99.90;;;;;;10058460;28;20109;-62
2022/10/07 22:21:42;;;;;;;7.28;4.97;;;18.00;99.90;;;;;;10058647;28;20013;-62
2022/10/07 22:26:46;;;;;;;12.33;6.03;;;18.00;99.90;;;;;;10061202;28;20042;-62
2022/10/07 22:31:37;;;;;;;10.48;6.63;;;17.90;99.90;;;;;;10072828;28;20056;-64
2022/10/07 22:36:28;;;;;;;13.80;6.85;;;18.00;99.90;;;;;;10074835;28;20357;-63
2022/10/07 22:41:19;;;;;;;12.90;7.35;;;17.90;99.90;;;;;;10093195;28;20076;-61
2022/10/07 22:46:12;;;;;;;13.98;7.35;;;17.80;99.90;;;;;;10077372;28;20080;-62
2022/10/07 22:51:05;;;;;;;11.90;6.00;;;17.80;99.90;;;;;;10062694;28;20022;-62
2022/10/07 22:56:01;;;;;;;10.45;6.65;;;17.70;99.90;;;;;;10059774;28;20021;-62
2022/10/07 23:00:52;;;;;;;17.17;8.13;;;17.70;99.90;;;;;;10060327;28;20036;-62
2022/10/07 23:05:42;;;;;;;15.25;7.75;;;17.60;99.90;;;;;;10060876;28;20094;-61
2022/10/07 23:10:33;;;;;;;15.07;6.70;;;17.50;99.90;;;;;;10060639;28;20014;-62
2022/10/07 23:15:23;;;;;;;15.25;6.55;;;17.50;99.90;;;;;;10059205;28;20026;-60
2022/10/07 23:20:14;;;;;;;16.67;7.47;;;17.40;99.90;;;;;;10056365;28;20091;-63
2022/10/07 23:25:05;;;;;;;11.85;6.28;;;17.30;99.90;;;;;;10056564;28;20037;-60
2022/10/07 23:29:56;;;;;;;15.00;6.93;;;17.20;99.90;;;;;;10057218;28;20032;-63
2022/10/07 23:34:47;;;;;;;13.73;7.15;;;17.30;99.90;;;;;;10055384;28;20029;-60
2022/10/07 23:39:37;;;;;;;17.15;6.20;;;17.30;99.90;;;;;;10055396;28;20025;-60
2022/10/07 23:44:28;;;;;;;9.52;6.03;;;17.30;99.90;;;;;;10057278;28;20107;-61
2022/10/07 23:49:18;;;;;;;12.80;6.07;;;17.30;99.90;;;;;;10054548;28;20617;-60
2022/10/07 23:54:09;;;;;;;11.95;5.75;;;17.30;99.90;;;;;;10057226;28;20274;-59
2022/10/07 23:59:00;;;;;;;16.00;6.85;;;17.10;99.90;;;;;;10062221;28;20461;-59
